Christina — ERJH — position and weather

sailwx.info

Track history (hours):
 
Tides and Currents Weather Stations Pressure Air Temp Water Temp Dewpoint Dewpoint Depression Visibility Wind Speed Wind Dir Waves Ship Positions

Christina

Last reported at 2014-Jul-19 11:32 UTC. Time now 2014-Jul-28 12:23 UTC.
Position N 40°56' E 028°57'.
Warning: this ship's position is 9 days out of date.

Length 72 m; draft 3.8 m.

Type: Ship (hazmat cat A). MMSI: 214181008.

Date/timePositionNaut miles runAvg speedWind from/ knotsBaromVisibWave heightAir tempDewpointWater temp
2014-Jul-19 11:32N 40°56' E 028°57'3 2.5
2014-Jul-19 10:31N 40°58' E 028°55'  
2014-Jul-11 01:21N 36°56' E 027°19'14 8.1
2014-Jul-10 23:33N 36°42' E 027°20'10 9.6
2014-Jul-10 22:33N 36°37' E 027°30'10 9.8
2014-Jul-10 21:33N 36°33' E 027°41'10 9.5
2014-Jul-10 20:32N 36°30' E 027°52'249 8.8
2014-Jul-09 16:22N 34°36' E 032°25'7 8.3
2014-Jul-09 15:33N 34°34' E 032°33'8 7.8
2014-Jul-09 14:33N 34°32' E 032°42'7 7.3
2014-Jul-09 13:33N 34°31' E 032°51'7 7.2
2014-Jul-09 12:32N 34°30' E 032°59'7 7.3
2014-Jul-09 11:33N 34°30' E 033°08'  
Track history (hours):
 
Tides and Currents Weather Stations Pressure Air Temp Water Temp Dewpoint Dewpoint Depression Visibility Wind Speed Wind Dir Waves Ship Positions

Christina

Last reported at 2014-Jul-19 11:32 UTC. Time now 2014-Jul-28 12:23 UTC.
Position N 40°56' E 028°57'.
Warning: this ship's position is 9 days out of date.

Length 72 m; draft 3.8 m.

Type: Ship (hazmat cat A). MMSI: 214181008.

Date/timePositionNaut miles runAvg speedWind from/ knotsBaromVisibWave heightAir tempDewpointWater temp
2014-Jul-19 11:32N 40°56' E 028°57'3 2.5
2014-Jul-19 10:31N 40°58' E 028°55'  
2014-Jul-11 01:21N 36°56' E 027°19'14 8.1
2014-Jul-10 23:33N 36°42' E 027°20'10 9.6
2014-Jul-10 22:33N 36°37' E 027°30'10 9.8
2014-Jul-10 21:33N 36°33' E 027°41'10 9.5
2014-Jul-10 20:32N 36°30' E 027°52'249 8.8
2014-Jul-09 16:22N 34°36' E 032°25'7 8.3
2014-Jul-09 15:33N 34°34' E 032°33'8 7.8
2014-Jul-09 14:33N 34°32' E 032°42'7 7.3
2014-Jul-09 13:33N 34°31' E 032°51'7 7.2
2014-Jul-09 12:32N 34°30' E 032°59'7 7.3
2014-Jul-09 11:33N 34°30' E 033°08'  

Dump ship's entire track history